createdAt,value
2022-12-18T00:01:39.738Z,96242.69
2022-12-18T00:04:09.970Z,96256.84
2022-12-18T00:06:38.265Z,96262.88
2022-12-18T00:09:07.690Z,96255.97
2022-12-18T00:11:36.613Z,96251.56
2022-12-18T00:14:04.882Z,96260.66
2022-12-18T00:16:34.097Z,96260.16
2022-12-18T00:19:03.090Z,96269.31
2022-12-18T00:21:32.631Z,96263.94
2022-12-18T00:24:01.906Z,96267.78
2022-12-18T00:26:33.508Z,96268.84
2022-12-18T00:29:06.411Z,96278.22
2022-12-18T00:31:35.830Z,96280.78
2022-12-18T00:34:04.769Z,96274.00
2022-12-18T00:36:36.370Z,96279.59
2022-12-18T00:39:07.085Z,96290.47
2022-12-18T00:41:54.278Z,96281.00
2022-12-18T00:44:22.352Z,96286.28
2022-12-18T00:46:50.576Z,96292.00
2022-12-18T00:49:22.666Z,96292.59
2022-12-18T00:51:51.478Z,96282.13
2022-12-18T00:54:20.059Z,96280.88
2022-12-18T00:56:50.110Z,96290.00
2022-12-18T00:59:20.057Z,96298.97
2022-12-18T01:01:48.847Z,96289.69
2022-12-18T01:04:17.313Z,96288.94
2022-12-18T01:06:47.163Z,96295.72
2022-12-18T01:09:15.398Z,96292.75
2022-12-18T01:11:43.799Z,96297.13
2022-12-18T01:14:14.073Z,96298.91
2022-12-18T01:16:42.272Z,96301.00
2022-12-18T01:19:11.420Z,96304.31
2022-12-18T01:21:39.471Z,96316.06
2022-12-18T01:24:08.047Z,96311.41
2022-12-18T01:26:36.179Z,96308.56
2022-12-18T01:29:04.971Z,96313.25
2022-12-18T01:31:35.872Z,96313.81
2022-12-18T01:34:06.448Z,96323.28
2022-12-18T01:36:39.906Z,96328.19
2022-12-18T01:39:10.374Z,96314.47
2022-12-18T01:41:52.709Z,96314.41
2022-12-18T01:45:03.408Z,96317.44
2022-12-18T01:47:38.704Z,96317.78
2022-12-18T01:50:10.355Z,96325.97
2022-12-18T01:52:39.692Z,96318.75
2022-12-18T01:55:09.239Z,96323.91
2022-12-18T01:57:38.279Z,96318.72
2022-12-18T02:00:10.377Z,96314.25
2022-12-18T02:02:43.687Z,96318.34
2022-12-18T02:05:13.858Z,96311.78
2022-12-18T02:07:51.815Z,96315.53
2022-12-18T02:10:29.001Z,96315.19
2022-12-18T02:13:04.297Z,96306.97
2022-12-18T02:15:41.316Z,96311.69
2022-12-18T02:18:15.243Z,96307.53
2022-12-18T02:20:48.992Z,96303.88
2022-12-18T02:23:36.006Z,96306.19
2022-12-18T02:26:16.431Z,96312.31
2022-12-18T02:28:48.997Z,96319.09
2022-12-18T02:31:24.297Z,96312.09
2022-12-18T02:33:58.053Z,96297.50
2022-12-18T02:36:28.497Z,96305.03
2022-12-18T02:39:00.687Z,96315.47
2022-12-18T02:41:31.654Z,96313.81
2022-12-18T02:44:02.588Z,96317.09
2022-12-18T02:46:35.807Z,96321.66
2022-12-18T02:49:21.372Z,96317.09
2022-12-18T02:51:55.644Z,96318.47
2022-12-18T02:54:44.751Z,96294.72
2022-12-18T02:57:21.673Z,96284.75
2022-12-18T02:59:58.689Z,96289.88
2022-12-18T03:02:32.808Z,96300.44
2022-12-18T03:05:03.231Z,96299.81
2022-12-18T03:07:39.008Z,96305.28
2022-12-18T03:10:14.298Z,96290.31
2022-12-18T03:12:48.905Z,96297.97
2022-12-18T03:15:21.313Z,96297.09
2022-12-18T03:17:59.819Z,96290.63
2022-12-18T03:20:33.054Z,96299.44
2022-12-18T03:23:06.348Z,96303.13
2022-12-18T03:25:35.523Z,96318.31
2022-12-18T03:28:09.500Z,96312.25
2022-12-18T03:30:40.091Z,96326.91
2022-12-18T03:33:12.975Z,96318.34
2022-12-18T03:35:46.270Z,96323.84
2022-12-18T03:38:15.713Z,96313.53
2022-12-18T03:40:58.382Z,96326.63
2022-12-18T03:43:41.842Z,96327.25
2022-12-18T03:46:18.357Z,96309.75
2022-12-18T03:48:50.422Z,96317.50
2022-12-18T03:51:27.170Z,96311.69
2022-12-18T03:54:00.450Z,96326.50
2022-12-18T03:56:37.691Z,96324.78
2022-12-18T03:59:11.154Z,96329.44
2022-12-18T04:01:44.958Z,96333.53
2022-12-18T04:04:17.005Z,96327.56
2022-12-18T04:06:49.016Z,96324.50
2022-12-18T04:09:21.342Z,96317.25
2022-12-18T04:11:50.172Z,96323.72
2022-12-18T04:14:19.946Z,96318.50
2022-12-18T04:16:52.619Z,96323.97
2022-12-18T04:19:25.163Z,96332.03
2022-12-18T04:21:54.780Z,96337.16
2022-12-18T04:24:23.047Z,96335.16
2022-12-18T04:27:07.232Z,96334.38
2022-12-18T04:29:43.046Z,96322.63
2022-12-18T04:32:12.096Z,96325.09
2022-12-18T04:34:41.478Z,96326.84
2022-12-18T04:37:09.776Z,96339.28
2022-12-18T04:39:37.985Z,96343.13
2022-12-18T04:42:11.675Z,96335.53
2022-12-18T04:44:39.723Z,96330.13
2022-12-18T04:47:09.559Z,96332.31
2022-12-18T04:49:37.600Z,96334.00
2022-12-18T04:52:05.939Z,96329.53
2022-12-18T04:54:34.000Z,96338.38
2022-12-18T04:57:02.056Z,96347.88
2022-12-18T04:59:30.162Z,96358.66
2022-12-18T05:02:00.367Z,96347.53
2022-12-18T05:04:29.928Z,96351.84
2022-12-18T05:06:58.340Z,96367.69
2022-12-18T05:09:26.423Z,96379.06
2022-12-18T05:11:54.981Z,96380.41
2022-12-18T05:14:23.033Z,96372.50
2022-12-18T05:16:51.485Z,96372.97
2022-12-18T05:19:19.846Z,96378.91
2022-12-18T05:21:49.337Z,96383.13
2022-12-18T05:24:17.567Z,96388.88
2022-12-18T05:26:45.631Z,96380.47
2022-12-18T05:29:14.212Z,96382.09
2022-12-18T05:31:42.982Z,96384.09
2022-12-18T05:34:12.046Z,96395.31
2022-12-18T05:36:40.942Z,96396.59
2022-12-18T05:39:10.483Z,96386.69
2022-12-18T05:41:38.496Z,96389.66
2022-12-18T05:44:06.999Z,96378.00
2022-12-18T05:46:35.149Z,96377.66
2022-12-18T05:49:04.020Z,96369.59
2022-12-18T05:51:32.436Z,96371.47
2022-12-18T05:54:00.460Z,96367.41
2022-12-18T05:56:30.040Z,96373.06
2022-12-18T05:58:58.215Z,96377.16
2022-12-18T06:01:28.381Z,96387.06
2022-12-18T06:03:57.291Z,96391.72
2022-12-18T06:06:27.111Z,96394.03
2022-12-18T06:08:56.043Z,96398.22
2022-12-18T06:11:25.825Z,96393.41
2022-12-18T06:13:59.018Z,96400.31
2022-12-18T06:16:27.860Z,96403.38
2022-12-18T06:18:58.156Z,96403.47
2022-12-18T06:21:26.225Z,96402.56
2022-12-18T06:23:54.311Z,96403.25
2022-12-18T06:26:27.843Z,96407.13
2022-12-18T06:28:58.083Z,96400.50
2022-12-18T06:31:27.261Z,96405.72
2022-12-18T06:33:55.388Z,96410.03
2022-12-18T06:36:23.663Z,96412.16
2022-12-18T06:38:51.719Z,96412.78
2022-12-18T06:41:22.631Z,96421.56
2022-12-18T06:43:50.659Z,96424.59
2022-12-18T06:46:20.326Z,96431.75
2022-12-18T06:48:51.874Z,96434.91
2022-12-18T06:51:21.758Z,96439.88
2022-12-18T06:53:49.887Z,96432.72
2022-12-18T06:56:18.194Z,96423.66
2022-12-18T06:58:48.578Z,96434.59
2022-12-18T07:01:18.156Z,96429.75
2022-12-18T07:03:48.824Z,96437.03
2022-12-18T07:06:18.602Z,96445.81
2022-12-18T07:08:47.484Z,96448.16
2022-12-18T07:11:15.928Z,96433.19
2022-12-18T07:13:44.029Z,96432.38
2022-12-18T07:16:20.851Z,96433.16
2022-12-18T07:18:53.626Z,96439.38
2022-12-18T07:21:22.181Z,96440.22
2022-12-18T07:23:50.405Z,96443.72
2022-12-18T07:26:20.796Z,96436.13
2022-12-18T07:28:49.296Z,96443.84
2022-12-18T07:31:19.555Z,96453.09
2022-12-18T07:33:50.682Z,96454.50
2022-12-18T07:36:21.027Z,96460.56
2022-12-18T07:38:49.927Z,96455.28
2022-12-18T07:41:19.794Z,96459.38
2022-12-18T07:43:48.755Z,96463.34
2022-12-18T07:46:17.737Z,96467.00
2022-12-18T07:48:49.470Z,96477.69
2022-12-18T07:51:20.381Z,96482.00
2022-12-18T07:53:52.013Z,96485.88
2022-12-18T07:56:30.025Z,96480.22
2022-12-18T07:58:59.879Z,96484.56
2022-12-18T08:01:28.177Z,96490.09
2022-12-18T08:03:56.691Z,96486.56
2022-12-18T08:06:26.262Z,96483.84
2022-12-18T08:08:55.496Z,60933.22
2022-12-18T08:11:25.115Z,60933.22
2022-12-18T08:13:53.449Z,60933.22
2022-12-18T08:16:22.346Z,60933.22
2022-12-18T08:18:50.771Z,60933.22
2022-12-18T08:21:23.846Z,60933.22
2022-12-18T08:23:54.831Z,60933.22
2022-12-18T08:26:23.988Z,60933.22
2022-12-18T08:28:53.123Z,60933.22
2022-12-18T08:31:22.059Z,60933.22
2022-12-18T08:33:52.438Z,60933.22
2022-12-18T08:36:20.556Z,60933.22
2022-12-18T08:38:49.263Z,60933.22
2022-12-18T08:41:19.484Z,60933.22
2022-12-18T08:44:04.951Z,60933.22
2022-12-18T08:46:37.932Z,60933.22
2022-12-18T08:49:06.755Z,60933.22
2022-12-18T08:51:35.418Z,60933.22
2022-12-18T08:54:04.635Z,60933.22
2022-12-18T08:56:36.128Z,60933.22
2022-12-18T08:59:05.302Z,60933.22
2022-12-18T09:01:33.750Z,60933.22
2022-12-18T09:04:02.669Z,60933.22
2022-12-18T09:06:30.731Z,60933.22
2022-12-18T09:08:59.427Z,60933.22
2022-12-18T09:11:29.517Z,60933.22
2022-12-18T09:14:00.423Z,60933.22
2022-12-18T09:16:32.561Z,60933.22
2022-12-18T09:19:02.004Z,60933.22
2022-12-18T09:21:33.486Z,60933.22
2022-12-18T09:24:08.813Z,60933.22
2022-12-18T09:26:37.888Z,60933.22
2022-12-18T09:29:09.191Z,60933.22
2022-12-18T09:31:38.762Z,60933.22
2022-12-18T09:34:08.629Z,60933.22
2022-12-18T09:36:36.804Z,60933.22
2022-12-18T09:39:08.578Z,60933.22
2022-12-18T09:41:48.958Z,60933.22
2022-12-18T09:44:24.861Z,60933.22
2022-12-18T09:46:59.376Z,60933.22
2022-12-18T09:49:32.127Z,60933.22
2022-12-18T09:52:06.563Z,60933.22
2022-12-18T09:54:37.820Z,60933.22
2022-12-18T09:57:06.533Z,60933.22
2022-12-18T09:59:40.698Z,60933.22
2022-12-18T10:02:20.175Z,60933.22
2022-12-18T10:05:01.753Z,60933.22
2022-12-18T10:07:40.563Z,60933.22
2022-12-18T10:10:18.541Z,60933.22
2022-12-18T10:13:04.038Z,60933.22
2022-12-18T10:15:42.119Z,60933.22
2022-12-18T10:18:26.219Z,60933.22
2022-12-18T10:20:59.044Z,60933.22
2022-12-18T10:23:34.578Z,60933.22
2022-12-18T10:26:06.739Z,60933.22
2022-12-18T10:28:38.468Z,60933.22
2022-12-18T10:31:14.873Z,60933.22
2022-12-18T10:33:42.973Z,60933.22
2022-12-18T10:36:11.239Z,60933.22
2022-12-18T10:38:40.091Z,60933.22
2022-12-18T10:41:27.419Z,60933.22
2022-12-18T10:44:13.536Z,60933.22
2022-12-18T10:46:43.636Z,60933.22
2022-12-18T10:49:23.408Z,60933.22
2022-12-18T10:51:52.993Z,60933.22
2022-12-18T10:54:24.996Z,60933.22
2022-12-18T10:56:53.109Z,60933.22
2022-12-18T10:59:21.627Z,60933.22
2022-12-18T11:01:57.389Z,60933.22
2022-12-18T11:04:27.689Z,60933.22
2022-12-18T11:07:02.093Z,60933.22
2022-12-18T11:09:30.717Z,60933.22
2022-12-18T11:12:01.371Z,60933.22
2022-12-18T11:14:31.437Z,60933.22
2022-12-18T11:17:25.422Z,60933.22
2022-12-18T11:19:55.296Z,60933.22
2022-12-18T11:22:27.596Z,60933.22
2022-12-18T11:27:54.613Z,60933.22
2022-12-18T11:30:25.260Z,60933.22
2022-12-18T11:32:58.905Z,60933.22
2022-12-18T11:35:38.269Z,60933.22
2022-12-18T11:38:13.181Z,60933.22
2022-12-18T11:40:46.199Z,60933.22
2022-12-18T11:43:19.055Z,60933.22
2022-12-18T11:45:53.166Z,60933.22
2022-12-18T11:48:27.955Z,60933.22
2022-12-18T11:50:58.759Z,60933.22
2022-12-18T11:53:28.229Z,60933.22
2022-12-18T11:56:07.031Z,60933.22
2022-12-18T11:58:45.777Z,60933.22
2022-12-18T12:01:26.473Z,60933.22
2022-12-18T12:04:29.635Z,60933.22
2022-12-18T12:07:06.861Z,60933.22
2022-12-18T12:09:43.229Z,60933.22
2022-12-18T12:12:26.686Z,60933.22
2022-12-18T12:15:04.182Z,60933.22
2022-12-18T12:17:39.568Z,60933.22
2022-12-18T12:20:19.760Z,60933.22
2022-12-18T12:22:57.221Z,60933.22
2022-12-18T12:25:35.571Z,60933.22
2022-12-18T12:28:17.935Z,60933.22
2022-12-18T12:30:57.901Z,60933.22
2022-12-18T12:33:39.333Z,60933.22
2022-12-18T12:36:20.976Z,60933.22
2022-12-18T12:38:53.963Z,60933.22
2022-12-18T12:41:43.964Z,60933.22
2022-12-18T12:44:21.329Z,60933.22
2022-12-18T12:46:53.096Z,60933.22
2022-12-18T12:49:27.896Z,60933.22
2022-12-18T12:52:05.567Z,60933.22
2022-12-18T12:54:37.208Z,60933.22
2022-12-18T12:57:11.893Z,60933.22
2022-12-18T12:59:54.106Z,60933.22
2022-12-18T13:02:28.925Z,60933.22
2022-12-18T13:05:03.263Z,60933.22
2022-12-18T13:07:34.730Z,60933.22
2022-12-18T13:10:26.879Z,60933.22
2022-12-18T13:12:59.478Z,60933.22
2022-12-18T13:15:32.838Z,60933.22
2022-12-18T13:18:20.177Z,60933.22
2022-12-18T13:20:55.139Z,60933.22
2022-12-18T13:23:37.491Z,60933.22
2022-12-18T13:26:36.889Z,60933.22
2022-12-18T13:29:07.113Z,60933.22
2022-12-18T13:32:02.413Z,60933.22
2022-12-18T13:34:32.751Z,60933.22
2022-12-18T13:37:35.229Z,60933.22
2022-12-18T13:40:39.429Z,60933.22
2022-12-18T13:43:23.182Z,60933.22
2022-12-18T13:46:00.720Z,60933.22
2022-12-18T13:48:31.257Z,60933.22
2022-12-18T13:51:04.391Z,60933.22
2022-12-18T13:53:36.929Z,60933.22
2022-12-18T13:56:07.814Z,60933.22
2022-12-18T13:58:35.895Z,60933.22
2022-12-18T14:01:05.741Z,60933.22
2022-12-18T14:03:33.992Z,60933.22
2022-12-18T14:06:06.604Z,60933.22
2022-12-18T14:08:39.945Z,60933.22
2022-12-18T14:11:22.302Z,60933.22
2022-12-18T14:13:51.473Z,60933.22
2022-12-18T14:16:20.287Z,60933.22
2022-12-18T14:18:55.503Z,60933.22
2022-12-18T14:21:30.361Z,60933.22
2022-12-18T14:24:19.560Z,60933.22
2022-12-18T14:26:50.801Z,60933.22
2022-12-18T14:29:25.804Z,60933.22
2022-12-18T14:32:16.880Z,60933.22
2022-12-18T14:34:46.033Z,60933.22
2022-12-18T14:37:16.760Z,60933.22
2022-12-18T14:39:55.736Z,60933.22
2022-12-18T14:42:29.112Z,60933.22
2022-12-18T14:45:42.126Z,60933.22
2022-12-18T14:48:16.321Z,60933.22
2022-12-18T14:51:02.053Z,60933.22
2022-12-18T14:53:54.439Z,60933.22
2022-12-18T14:56:24.703Z,60933.22
2022-12-18T14:58:57.516Z,60933.22
2022-12-18T15:01:29.316Z,60933.22
2022-12-18T15:03:58.913Z,60933.22
2022-12-18T15:06:33.320Z,60933.22
2022-12-18T15:09:01.498Z,60933.22
2022-12-18T15:11:47.760Z,60933.22
2022-12-18T15:14:40.798Z,60933.22
2022-12-18T15:17:19.004Z,60933.22
2022-12-18T15:19:49.012Z,60933.22
2022-12-18T15:22:22.248Z,60933.22
2022-12-18T15:24:52.426Z,60933.22
2022-12-18T15:27:24.101Z,60933.22
2022-12-18T15:30:13.739Z,60933.22
2022-12-18T15:32:42.671Z,60933.22
2022-12-18T15:35:16.638Z,60933.22
2022-12-18T15:37:45.533Z,60933.22
2022-12-18T15:40:17.911Z,60933.22
2022-12-18T15:43:04.943Z,60933.22
2022-12-18T15:45:34.439Z,60933.22
2022-12-18T15:48:10.895Z,60933.22
2022-12-18T15:50:39.038Z,60933.22
2022-12-18T15:53:07.156Z,60933.22
2022-12-18T15:55:56.557Z,60933.22
2022-12-18T15:58:28.921Z,60933.22
2022-12-18T16:01:01.366Z,60933.22
2022-12-18T16:03:29.529Z,60933.22
2022-12-18T16:05:59.313Z,60933.22
2022-12-18T16:08:28.152Z,60933.22
2022-12-18T16:10:57.010Z,60933.22
2022-12-18T16:13:25.298Z,60933.22
2022-12-18T16:15:53.400Z,60933.22
2022-12-18T16:18:23.296Z,60933.22
2022-12-18T16:20:51.584Z,60933.22
2022-12-18T16:23:19.726Z,60933.22
2022-12-18T16:25:48.635Z,60933.22
2022-12-18T16:28:16.759Z,60933.22
2022-12-18T16:30:45.844Z,60933.22
2022-12-18T16:33:14.155Z,60933.22
2022-12-18T16:35:43.811Z,60933.22
2022-12-18T16:38:12.341Z,60933.22
2022-12-18T16:41:02.936Z,60933.22
2022-12-18T16:43:31.018Z,60933.22
2022-12-18T16:46:01.175Z,60933.22
2022-12-18T16:48:29.314Z,60933.22
2022-12-18T16:51:03.694Z,60933.22
2022-12-18T16:53:33.614Z,60933.22
2022-12-18T16:56:03.579Z,60933.22
2022-12-18T16:58:33.079Z,60933.22
2022-12-18T17:01:01.217Z,60933.22
2022-12-18T17:03:29.370Z,60933.22
2022-12-18T17:06:05.613Z,60933.22
2022-12-18T17:08:33.967Z,60933.22
2022-12-18T17:11:05.854Z,60933.22
2022-12-18T17:13:34.096Z,60933.22
2022-12-18T17:16:06.630Z,60933.22
2022-12-18T17:18:36.474Z,60933.22
2022-12-18T17:21:09.487Z,60933.22
2022-12-18T17:23:38.713Z,60933.22
2022-12-18T17:26:08.371Z,60933.22
2022-12-18T17:28:37.505Z,60933.22
2022-12-18T17:31:12.803Z,60933.22
2022-12-18T17:33:42.075Z,60933.22
2022-12-18T17:36:12.582Z,60933.22
2022-12-18T17:38:41.454Z,60933.22
2022-12-18T17:41:11.523Z,60933.22
2022-12-18T17:43:45.615Z,60933.22
2022-12-18T17:46:15.400Z,60933.22
2022-12-18T17:48:43.824Z,60933.22
2022-12-18T17:51:14.062Z,60933.22
2022-12-18T17:53:42.659Z,60933.22
2022-12-18T17:56:14.107Z,60933.22
2022-12-18T17:58:43.182Z,60933.22
2022-12-18T18:01:15.133Z,60933.22
2022-12-18T18:03:45.478Z,60933.22
2022-12-18T18:06:18.144Z,60933.22
2022-12-18T18:08:46.489Z,60933.22
2022-12-18T18:11:34.808Z,60933.22
2022-12-18T18:14:05.235Z,60933.22
2022-12-18T18:16:37.214Z,60933.22
2022-12-18T18:19:08.077Z,60933.22
2022-12-18T18:21:40.442Z,60933.22
2022-12-18T18:24:10.945Z,60933.22
2022-12-18T18:26:39.849Z,60933.22
2022-12-18T18:29:11.938Z,60933.22
2022-12-18T18:31:40.913Z,60933.22
2022-12-18T18:34:15.949Z,60933.22
2022-12-18T18:36:46.587Z,60933.22
2022-12-18T18:39:15.886Z,60933.22
2022-12-18T18:41:47.194Z,60933.22
2022-12-18T18:44:17.005Z,60933.22
2022-12-18T18:46:45.642Z,60933.22
2022-12-18T18:49:14.249Z,60933.22
2022-12-18T18:51:42.551Z,60933.22
2022-12-18T18:54:12.337Z,60933.22
2022-12-18T18:57:11.995Z,60933.22
2022-12-18T18:59:32.065Z,60933.22
2022-12-18T19:02:04.762Z,60933.22
2022-12-18T19:04:45.648Z,60933.22
2022-12-18T19:07:18.476Z,60933.22
2022-12-18T19:10:04.808Z,60933.22
2022-12-18T19:12:53.740Z,60933.22
2022-12-18T19:15:26.539Z,60933.22
2022-12-18T19:17:54.988Z,60933.22
2022-12-18T19:20:23.193Z,60933.22
2022-12-18T19:22:55.596Z,60933.22
2022-12-18T19:25:38.576Z,60933.22
2022-12-18T19:28:21.491Z,60933.22
2022-12-18T19:30:57.610Z,60933.22
2022-12-18T19:33:44.312Z,60933.22
2022-12-18T19:36:15.525Z,60933.22
2022-12-18T19:38:45.439Z,60933.22
2022-12-18T19:41:15.821Z,60933.22
2022-12-18T19:43:45.498Z,60933.22
2022-12-18T19:46:16.195Z,60933.22
2022-12-18T19:48:45.422Z,60933.22
2022-12-18T19:51:16.349Z,60933.22
2022-12-18T19:53:44.732Z,60933.22
2022-12-18T19:56:16.746Z,60933.22
2022-12-18T19:58:47.004Z,60933.22
2022-12-18T20:01:17.104Z,60933.22
2022-12-18T20:03:51.608Z,60933.22
2022-12-18T20:06:26.637Z,60933.22
2022-12-18T20:08:59.590Z,60933.22
2022-12-18T20:11:31.043Z,60933.22
2022-12-18T20:13:59.791Z,60933.22
2022-12-18T20:16:28.009Z,60933.22
2022-12-18T20:18:59.631Z,60933.22
2022-12-18T20:21:28.501Z,60933.22
2022-12-18T20:23:57.260Z,60933.22
2022-12-18T20:26:25.848Z,60933.22
2022-12-18T20:28:56.179Z,60933.22
2022-12-18T20:31:25.126Z,60933.22
2022-12-18T20:33:55.652Z,60933.22
2022-12-18T20:36:28.291Z,60933.22
2022-12-18T20:39:00.638Z,60933.22
2022-12-18T20:41:38.135Z,60933.22
2022-12-18T20:44:21.600Z,60933.22
2022-12-18T20:46:55.612Z,60933.22
2022-12-18T20:49:25.513Z,60933.22
2022-12-18T20:51:54.873Z,60933.22
2022-12-18T20:54:25.705Z,60933.22
2022-12-18T20:56:57.896Z,60933.22
2022-12-18T20:59:27.399Z,60933.22
2022-12-18T21:01:55.838Z,60933.22
2022-12-18T21:04:24.652Z,60933.22
2022-12-18T21:07:00.493Z,60933.22
2022-12-18T21:09:38.203Z,60933.22
2022-12-18T21:12:25.815Z,60933.22
2022-12-18T21:14:55.392Z,60933.22
2022-12-18T21:17:23.929Z,60933.22
2022-12-18T21:19:54.797Z,60933.22
2022-12-18T21:22:23.364Z,60933.22
2022-12-18T21:24:52.656Z,60933.22
2022-12-18T21:27:21.221Z,60933.22
2022-12-18T21:29:49.528Z,60933.22
2022-12-18T21:32:23.704Z,60933.22
2022-12-18T21:34:53.755Z,60933.22
2022-12-18T21:37:21.937Z,60933.22
2022-12-18T21:39:51.131Z,60933.22
2022-12-18T21:42:36.734Z,60933.22
2022-12-18T21:45:05.504Z,60933.22
2022-12-18T21:47:36.095Z,60933.22
2022-12-18T21:50:05.100Z,60933.22
2022-12-18T21:52:33.281Z,60933.22
2022-12-18T21:55:08.466Z,60933.22
2022-12-18T21:57:38.331Z,60933.22
2022-12-18T22:00:08.882Z,60933.22
2022-12-18T22:02:44.333Z,60933.22
2022-12-18T22:05:12.659Z,60933.22
2022-12-18T22:07:41.401Z,60933.22
2022-12-18T22:10:10.281Z,60933.22
2022-12-18T22:12:43.112Z,60933.22
2022-12-18T22:15:21.501Z,60933.22
2022-12-18T22:17:52.692Z,60933.22
2022-12-18T22:20:26.328Z,60933.22
2022-12-18T22:22:54.948Z,60933.22
2022-12-18T22:25:24.002Z,60933.22
2022-12-18T22:28:06.798Z,60933.22
2022-12-18T22:30:35.316Z,60933.22
2022-12-18T22:33:05.303Z,60933.22
2022-12-18T22:35:33.381Z,60933.22
2022-12-18T22:38:02.774Z,60933.22
2022-12-18T22:40:31.248Z,60933.22
2022-12-18T22:42:59.607Z,60933.22
2022-12-18T22:45:28.998Z,60933.22
2022-12-18T22:47:57.644Z,60933.22
2022-12-18T22:50:27.217Z,60933.22
2022-12-18T22:52:55.487Z,60933.22
2022-12-18T22:55:23.680Z,60933.22
2022-12-18T22:57:51.775Z,60933.22
2022-12-18T23:00:24.291Z,60933.22
2022-12-18T23:02:59.984Z,60933.22
2022-12-18T23:05:31.859Z,60933.22
2022-12-18T23:08:00.691Z,60933.22
2022-12-18T23:10:29.041Z,60933.22
2022-12-18T23:12:57.309Z,60933.22
2022-12-18T23:15:27.920Z,60933.22
2022-12-18T23:17:58.707Z,60933.22
2022-12-18T23:20:27.957Z,60933.22
2022-12-18T23:22:57.422Z,60933.22
2022-12-18T23:25:25.441Z,60933.22
2022-12-18T23:27:53.499Z,60933.22
2022-12-18T23:30:22.116Z,60933.22
2022-12-18T23:32:50.268Z,60933.22
2022-12-18T23:35:18.812Z,60933.22
2022-12-18T23:38:03.672Z,60933.22
2022-12-18T23:40:33.158Z,60933.22
2022-12-18T23:43:01.285Z,60933.22
2022-12-18T23:45:29.408Z,60933.22
2022-12-18T23:47:57.841Z,60933.22
2022-12-18T23:50:29.287Z,60933.22
2022-12-18T23:53:04.710Z,60933.22
2022-12-18T23:55:35.716Z,60933.22
2022-12-18T23:58:05.515Z,60933.22
